Time;durP1;ratioP1;P1;durP2;ratioP2;P2;SDS_P1;SDS_P2;PMS_P1;PMS_P2;Temp;Humidity;BMP_temperature;BMP_pressure;BME280_temperature;BME280_humidity;BME280_pressure;Samples;Min_cycle;Max_cycle;Signal;HPM_P1;HPM_P2
2022/12/02 00:01:17;;;;;;;;;;;;;;;5.62;100.00;100742.56;6256920;22;19915;-87
2022/12/02 00:03:45;;;;;;;;;;;;;;;5.64;100.00;100745.03;6282700;22;19917;-87
2022/12/02 00:06:20;;;;;;;;;;;;;;;5.67;100.00;100742.16;6285652;22;20384;-88
2022/12/02 00:08:53;;;;;;;;;;;;;;;5.89;100.00;100744.75;6296125;22;19914;-86
2022/12/02 00:11:39;;;;;;;;;;;;;;;5.88;100.00;100743.06;6271745;22;19947;-86
2022/12/02 00:16:56;;;;;;;;;;;;;;;6.00;100.00;100743.88;6305103;22;19909;-84
2022/12/02 00:19:24;;;;;;;;;;;;;;;5.88;100.00;100737.81;6211537;23;19900;-86
2022/12/02 00:21:50;;;;;;;;;;;;;;;5.88;100.00;100735.19;6248275;23;19903;-85
2022/12/02 00:24:17;;;;;;;;;;;;;;;5.82;100.00;100737.44;6262045;23;20243;-85
2022/12/02 00:26:42;;;;;;;;;;;;;;;5.90;100.00;100735.06;6259906;23;20001;-85
2022/12/02 00:29:08;;;;;;;;;;;;;;;6.04;100.00;100742.63;6203397;23;20327;-86
2022/12/02 00:31:45;;;;;;;;;;;;;;;6.00;100.00;100735.97;6224915;23;20253;-86
2022/12/02 00:34:12;;;;;;;;;;;;;;;5.82;100.00;100733.03;6228710;23;19911;-84
2022/12/02 00:36:40;;;;;;;;;;;;;;;6.06;100.00;100738.09;6225901;23;19907;-85
2022/12/02 00:39:09;;;;;;;;;;;;;;;6.10;100.00;100742.94;6225675;23;19942;-85
2022/12/02 00:41:39;;;;;;;;;;;;;;;6.20;100.00;100737.75;6250767;23;19931;-86
2022/12/02 00:46:49;;;;;;;;;;;;;;;6.02;100.00;100734.03;6225759;23;19918;-85
2022/12/02 00:49:15;;;;;;;;;;;;;;;6.20;100.00;100729.84;6251443;23;19911;-87
2022/12/02 00:51:44;;;;;;;;;;;;;;;6.39;100.00;100731.78;6224746;23;19979;-86
2022/12/02 00:54:18;;;;;;;;;;;;;;;6.38;100.00;100730.94;6251310;23;20337;-86
2022/12/02 00:56:44;;;;;;;;;;;;;;;6.30;100.00;100728.13;6213478;23;19915;-85
2022/12/02 00:59:09;;;;;;;;;;;;;;;6.08;100.00;100733.53;6220997;23;19918;-86
2022/12/02 01:01:35;;;;;;;;;;;;;;;5.94;100.00;100736.47;6221108;23;19907;-85
2022/12/02 01:04:02;;;;;;;;;;;;;;;6.10;100.00;100742.09;6220977;23;19919;-86
2022/12/02 01:06:28;;;;;;;;;;;;;;;6.04;100.00;100734.72;6221287;23;19912;-85
2022/12/02 01:08:53;;;;;;;;;;;;;;;6.09;100.00;100736.03;6221518;23;19955;-86
2022/12/02 01:11:19;;;;;;;;;;;;;;;6.33;100.00;100738.38;6266929;23;19946;-86
2022/12/02 01:13:45;;;;;;;;;;;;;;;6.37;100.00;100738.97;6238019;23;19911;-86
2022/12/02 01:16:13;;;;;;;;;;;;;;;6.42;100.00;100742.06;6261208;23;19907;-85
2022/12/02 01:18:39;;;;;;;;;;;;;;;6.10;100.00;100744.75;6222651;23;20250;-86
2022/12/02 01:21:06;;;;;;;;;;;;;;;6.03;100.00;100749.69;6249340;23;19971;-85
2022/12/02 01:23:31;;;;;;;;;;;;;;;5.95;100.00;100746.03;6249208;23;19912;-86
2022/12/02 01:25:56;;;;;;;;;;;;;;;5.78;100.00;100749.16;6222978;23;19931;-85
2022/12/02 01:28:22;;;;;;;;;;;;;;;5.53;100.00;100743.31;6221180;23;20246;-85
2022/12/02 01:30:47;;;;;;;;;;;;;;;5.43;100.00;100750.25;6248058;23;19915;-85
2022/12/02 01:33:13;;;;;;;;;;;;;;;5.25;100.00;100749.09;6196217;23;20243;-85
2022/12/02 01:35:38;;;;;;;;;;;;;;;5.08;100.00;100744.34;6266862;22;19934;-86
2022/12/02 01:38:04;;;;;;;;;;;;;;;5.07;100.00;100740.06;6271691;22;20084;-85
2022/12/02 01:40:30;;;;;;;;;;;;;;;5.14;100.00;100744.69;6247826;23;20231;-86
2022/12/02 01:42:57;;;;;;;;;;;;;;;5.16;100.00;100749.84;6222459;23;19945;-87
2022/12/02 01:45:25;;;;;;;;;;;;;;;5.09;100.00;100741.63;6247211;23;19903;-85
2022/12/02 01:47:54;;;;;;;;;;;;;;;5.26;100.00;100750.78;6220422;23;19926;-86
2022/12/02 01:50:19;;;;;;;;;;;;;;;5.38;100.00;100749.78;6221052;23;19942;-85
2022/12/02 01:52:45;;;;;;;;;;;;;;;5.39;100.00;100748.84;6247795;23;19911;-85
2022/12/02 01:55:12;;;;;;;;;;;;;;;5.55;100.00;100740.53;6248453;23;19911;-86
2022/12/02 01:57:43;;;;;;;;;;;;;;;5.23;100.00;100756.28;6249384;23;19914;-85
2022/12/02 02:00:10;;;;;;;;;;;;;;;5.17;100.00;100756.78;6226334;23;19912;-84
2022/12/02 02:02:39;;;;;;;;;;;;;;;5.14;100.00;100757.00;6225395;23;19982;-84
2022/12/02 02:05:12;;;;;;;;;;;;;;;5.25;100.00;100753.50;6250782;23;19919;-87
2022/12/02 02:07:38;;;;;;;;;;;;;;;5.20;100.00;100754.72;6248008;23;19915;-84
2022/12/02 02:10:04;;;;;;;;;;;;;;;5.26;100.00;100755.19;6221153;23;19914;-86
2022/12/02 02:12:30;;;;;;;;;;;;;;;5.47;100.00;100750.84;6222292;23;19934;-85
2022/12/02 02:14:56;;;;;;;;;;;;;;;5.34;100.00;100753.63;6248935;23;20281;-87
2022/12/02 02:17:23;;;;;;;;;;;;;;;5.24;100.00;100752.69;6248575;23;20307;-85
2022/12/02 02:19:49;;;;;;;;;;;;;;;5.33;100.00;100740.59;6222595;23;20429;-85
2022/12/02 02:22:28;;;;;;;;;;;;;;;5.23;100.00;100740.50;6249301;23;19911;-86
2022/12/02 02:24:53;;;;;;;;;;;;;;;5.21;100.00;100738.00;6222215;23;19911;-86
2022/12/02 02:27:19;;;;;;;;;;;;;;;5.14;100.00;100736.81;6220930;23;20014;-86
2022/12/02 02:29:45;;;;;;;;;;;;;;;5.21;100.00;100742.41;6247237;23;19912;-85
2022/12/02 02:32:11;;;;;;;;;;;;;;;5.20;100.00;100735.50;6220219;23;19942;-86
2022/12/02 02:34:36;;;;;;;;;;;;;;;5.16;100.00;100728.81;6249030;23;19919;-87
2022/12/02 02:37:02;;;;;;;;;;;;;;;5.16;100.00;100729.66;6252492;23;20002;-86
2022/12/02 02:39:28;;;;;;;;;;;;;;;5.17;100.00;100727.88;6251497;23;20007;-86
2022/12/02 02:41:55;;;;;;;;;;;;;;;5.20;100.00;100725.00;6221306;23;19922;-86
2022/12/02 02:44:21;;;;;;;;;;;;;;;5.11;100.00;100720.47;6221211;23;19918;-86
2022/12/02 02:46:48;;;;;;;;;;;;;;;5.08;100.00;100731.22;6222144;23;19911;-88
2022/12/02 02:49:14;;;;;;;;;;;;;;;5.13;100.00;100721.19;6248358;23;19937;-86
2022/12/02 02:51:39;;;;;;;;;;;;;;;5.10;100.00;100721.44;6249511;23;20259;-87
2022/12/02 02:54:06;;;;;;;;;;;;;;;5.00;100.00;100723.97;6220719;23;20008;-86
2022/12/02 03:00:00;;;;;;;;;;;;;;;4.99;100.00;100726.69;6271520;22;19950;-86
2022/12/02 03:02:26;;;;;;;;;;;;;;;5.05;100.00;100718.31;6247780;23;19919;-87
2022/12/02 03:04:52;;;;;;;;;;;;;;;5.03;100.00;100717.63;6240417;23;19919;-88
2022/12/02 03:07:18;;;;;;;;;;;;;;;5.03;100.00;100717.63;6196622;23;19962;-87
2022/12/02 03:09:44;;;;;;;;;;;;;;;5.06;100.00;100712.13;6220613;23;19911;-86
2022/12/02 03:12:09;;;;;;;;;;;;;;;5.20;100.00;100703.97;6220110;23;19912;-89
2022/12/02 03:14:35;;;;;;;;;;;;;;;5.23;100.00;100706.38;6220920;23;19911;-89
2022/12/02 03:17:01;;;;;;;;;;;;;;;5.26;100.00;100703.47;6246574;23;20385;-86
2022/12/02 03:19:28;;;;;;;;;;;;;;;5.31;100.00;100706.56;6247574;23;20307;-87
2022/12/02 03:21:54;;;;;;;;;;;;;;;5.38;100.00;100701.63;6247544;23;19990;-86
2022/12/02 03:24:20;;;;;;;;;;;;;;;5.36;100.00;100704.41;6247276;23;19912;-86
2022/12/02 03:26:45;;;;;;;;;;;;;;;5.47;100.00;100706.97;6247848;23;19994;-86
2022/12/02 03:29:12;;;;;;;;;;;;;;;5.52;100.00;100704.00;6262206;23;19991;-86
2022/12/02 03:31:38;;;;;;;;;;;;;;;5.59;100.00;100710.41;6263633;23;19911;-85
2022/12/02 03:34:03;;;;;;;;;;;;;;;5.53;100.00;100709.13;6260305;23;19919;-86
2022/12/02 03:36:29;;;;;;;;;;;;;;;5.74;100.00;100704.72;6252548;23;19921;-86
2022/12/02 03:38:55;;;;;;;;;;;;;;;5.65;100.00;100702.88;6252039;23;19912;-83
2022/12/02 03:41:21;;;;;;;;;;;;;;;5.52;100.00;100707.47;6252132;23;19999;-83
2022/12/02 03:43:46;;;;;;;;;;;;;;;5.51;100.00;100702.31;6251995;23;19951;-85
2022/12/02 03:46:12;;;;;;;;;;;;;;;5.57;100.00;100704.44;6251501;23;19918;-84
2022/12/02 03:48:41;;;;;;;;;;;;;;;5.57;100.00;100701.81;6257610;23;19918;-85
2022/12/02 03:51:07;;;;;;;;;;;;;;;5.68;100.00;100702.59;6257930;23;19915;-86
2022/12/02 03:53:33;;;;;;;;;;;;;;;5.70;100.00;100707.75;6254267;23;19907;-85
2022/12/02 03:56:01;;;;;;;;;;;;;;;5.61;100.00;100706.69;6222345;23;19911;-85
2022/12/02 03:58:34;;;;;;;;;;;;;;;5.66;100.00;100704.53;6250594;23;19927;-86
2022/12/02 04:00:59;;;;;;;;;;;;;;;5.63;100.00;100703.94;6251074;23;19919;-85
2022/12/02 04:03:25;;;;;;;;;;;;;;;5.69;100.00;100700.81;6251089;23;19929;-85
2022/12/02 04:05:50;;;;;;;;;;;;;;;5.84;100.00;100703.94;6251147;23;19966;-85
2022/12/02 04:08:15;;;;;;;;;;;;;;;5.73;100.00;100697.78;6250806;23;19915;-84
2022/12/02 04:10:41;;;;;;;;;;;;;;;5.70;100.00;100707.75;6250888;23;19903;-84
2022/12/02 04:13:07;;;;;;;;;;;;;;;5.66;100.00;100701.91;6249934;23;19912;-85
2022/12/02 04:15:32;;;;;;;;;;;;;;;5.68;100.00;100705.22;6224539;23;19911;-86
2022/12/02 04:18:03;;;;;;;;;;;;;;;5.67;100.00;100700.94;6252749;23;19950;-86
2022/12/02 04:20:29;;;;;;;;;;;;;;;5.84;100.00;100702.16;6254406;23;19911;-86
2022/12/02 04:22:54;;;;;;;;;;;;;;;5.68;100.00;100699.13;6252660;23;19993;-85
2022/12/02 04:25:20;;;;;;;;;;;;;;;5.73;100.00;100700.41;6252795;23;19926;-86
2022/12/02 04:27:46;;;;;;;;;;;;;;;5.76;100.00;100698.50;6259382;23;19914;-84
2022/12/02 04:30:11;;;;;;;;;;;;;;;5.73;100.00;100697.78;6273821;22;19899;-86
2022/12/02 04:32:37;;;;;;;;;;;;;;;5.75;100.00;100695.03;6258986;22;20323;-85
2022/12/02 04:35:03;;;;;;;;;;;;;;;5.61;100.00;100685.66;6225352;23;19911;-85
2022/12/02 04:37:28;;;;;;;;;;;;;;;5.66;100.00;100680.88;6252604;23;19915;-85
2022/12/02 04:39:54;;;;;;;;;;;;;;;5.72;100.00;100677.72;6253023;23;19934;-87
2022/12/02 04:42:23;;;;;;;;;;;;;;;5.65;100.00;100687.09;6251771;23;19912;-86
2022/12/02 04:44:52;;;;;;;;;;;;;;;5.58;100.00;100677.19;6229574;23;19918;-85
2022/12/02 04:47:17;;;;;;;;;;;;;;;5.59;100.00;100679.72;6226616;23;19982;-86
2022/12/02 04:49:42;;;;;;;;;;;;;;;5.52;100.00;100678.53;6230692;23;19911;-85
2022/12/02 04:52:08;;;;;;;;;;;;;;;5.60;100.00;100675.28;6270679;22;19911;-84
2022/12/02 04:54:33;;;;;;;;;;;;;;;5.53;100.00;100674.97;6270510;22;19915;-85
2022/12/02 04:56:59;;;;;;;;;;;;;;;5.48;100.00;100677.13;6246580;23;19938;-85
2022/12/02 04:59:24;;;;;;;;;;;;;;;5.37;100.00;100674.53;6274255;22;19916;-86
2022/12/02 05:01:49;;;;;;;;;;;;;;;5.38;100.00;100681.47;6269178;22;19939;-86
2022/12/02 05:04:15;;;;;;;;;;;;;;;5.48;100.00;100682.38;6260434;23;19911;-85
2022/12/02 05:06:40;;;;;;;;;;;;;;;5.56;100.00;100681.75;6255696;23;19922;-84
2022/12/02 05:09:06;;;;;;;;;;;;;;;5.66;100.00;100686.13;6224685;23;19922;-86
2022/12/02 05:11:32;;;;;;;;;;;;;;;5.79;100.00;100690.38;6249282;23;20319;-84
2022/12/02 05:13:57;;;;;;;;;;;;;;;5.77;100.00;100687.03;6249614;23;19914;-86
2022/12/02 05:16:22;;;;;;;;;;;;;;;6.06;100.00;100693.34;6261616;23;19911;-87
2022/12/02 05:18:51;;;;;;;;;;;;;;;6.08;100.00;100696.69;6265017;23;19908;-88
2022/12/02 05:21:16;;;;;;;;;;;;;;;6.10;100.00;100692.13;6228243;23;20360;-88
2022/12/02 05:23:42;;;;;;;;;;;;;;;6.01;100.00;100691.09;6222273;23;19935;-86
2022/12/02 05:26:07;;;;;;;;;;;;;;;5.92;100.00;100688.41;6248120;23;19912;-88
2022/12/02 05:28:32;;;;;;;;;;;;;;;5.72;100.00;100690.88;6247216;23;19912;-84
2022/12/02 05:30:58;;;;;;;;;;;;;;;5.91;100.00;100694.63;6196214;23;19914;-87
2022/12/02 05:33:23;;;;;;;;;;;;;;;5.57;100.00;100686.03;6221157;23;20266;-88
2022/12/02 05:35:49;;;;;;;;;;;;;;;5.41;100.00;100690.88;6248497;23;19911;-84
2022/12/02 05:38:17;;;;;;;;;;;;;;;5.50;100.00;100696.22;6251769;23;19908;-84
2022/12/02 05:40:42;;;;;;;;;;;;;;;5.43;100.00;100695.06;6231348;23;19911;-83
2022/12/02 05:43:14;;;;;;;;;;;;;;;5.42;100.00;100703.06;6273498;22;19931;-85
2022/12/02 05:45:39;;;;;;;;;;;;;;;5.51;100.00;100703.16;6263479;23;19911;-87
2022/12/02 05:48:05;;;;;;;;;;;;;;;5.60;100.00;100712.09;6247127;23;20285;-84
2022/12/02 05:50:32;;;;;;;;;;;;;;;5.81;100.00;100712.09;6249111;23;19911;-90
2022/12/02 05:52:58;;;;;;;;;;;;;;;5.84;100.00;100709.22;6220411;23;19994;-85
2022/12/02 05:55:23;;;;;;;;;;;;;;;5.78;100.00;100718.47;6240192;22;19951;-90
2022/12/02 05:57:49;;;;;;;;;;;;;;;5.76;100.00;100716.91;6267964;22;20381;-86
2022/12/02 06:00:19;;;;;;;;;;;;;;;5.59;100.00;100707.78;6246427;23;19947;-87
2022/12/02 06:02:51;;;;;;;;;;;;;;;5.72;100.00;100714.53;6247302;23;19911;-87
2022/12/02 06:05:16;;;;;;;;;;;;;;;5.80;100.00;100713.88;6247556;23;19967;-87
2022/12/02 06:07:42;;;;;;;;;;;;;;;5.99;100.00;100710.63;6246207;23;19918;-90
2022/12/02 06:10:31;;;;;;;;;;;;;;;5.80;100.00;100718.34;6249813;23;19911;-88
2022/12/02 06:13:26;;;;;;;;;;;;;;;5.68;100.00;100717.53;6228879;23;20002;-88
2022/12/02 06:15:52;;;;;;;;;;;;;;;5.66;100.00;100717.69;6216602;23;19986;-87
2022/12/02 06:18:21;;;;;;;;;;;;;;;5.48;100.00;100708.66;6221411;23;19910;-88
2022/12/02 06:20:50;;;;;;;;;;;;;;;5.34;100.00;100715.97;6248333;23;19917;-89
2022/12/02 06:23:17;;;;;;;;;;;;;;;5.22;100.00;100717.81;6221928;23;19910;-88
2022/12/02 06:25:43;;;;;;;;;;;;;;;5.11;100.00;100716.03;6249209;23;19956;-89
2022/12/02 06:28:17;;;;;;;;;;;;;;;5.11;100.00;100715.19;6221328;23;19915;-87
2022/12/02 06:30:43;;;;;;;;;;;;;;;5.32;100.00;100717.91;6250362;23;19986;-91
2022/12/02 06:33:14;;;;;;;;;;;;;;;5.28;100.00;100717.31;6248704;23;20286;-83
2022/12/02 06:35:40;;;;;;;;;;;;;;;5.30;100.00;100720.69;6247381;23;19987;-83
2022/12/02 06:38:18;;;;;;;;;;;;;;;5.10;100.00;100724.88;6248186;23;20247;-83
2022/12/02 06:40:44;;;;;;;;;;;;;;;5.38;100.00;100712.16;6223060;23;19935;-86
2022/12/02 06:43:17;;;;;;;;;;;;;;;5.46;100.00;100721.09;6247866;23;19926;-85
2022/12/02 06:45:44;;;;;;;;;;;;;;;5.54;100.00;100723.94;6196350;23;19911;-83
2022/12/02 06:48:19;;;;;;;;;;;;;;;5.65;100.00;100730.94;6246605;23;19912;-87
2022/12/02 06:50:45;;;;;;;;;;;;;;;5.51;100.00;100732.06;6246465;23;19923;-83
2022/12/02 06:53:31;;;;;;;;;;;;;;;5.30;100.00;100735.59;6247964;23;19939;-86
2022/12/02 06:56:00;;;;;;;;;;;;;;;5.37;100.00;100732.34;6224487;23;19943;-86
2022/12/02 06:58:36;;;;;;;;;;;;;;;5.18;100.00;100733.00;6224021;23;19911;-86
2022/12/02 07:01:24;;;;;;;;;;;;;;;5.29;100.00;100737.41;6246828;23;19911;-83
2022/12/02 07:04:00;;;;;;;;;;;;;;;5.50;100.00;100733.00;6229580;23;19918;-85
2022/12/02 07:06:27;;;;;;;;;;;;;;;5.68;100.00;100736.78;6262625;23;19942;-83
2022/12/02 07:08:57;;;;;;;;;;;;;;;5.74;100.00;100733.66;6261233;23;19919;-88
2022/12/02 07:14:22;;;;;;;;;;;;;;;5.56;100.00;100732.53;6220354;23;19911;-86
2022/12/02 07:16:49;;;;;;;;;;;;;;;5.48;100.00;100734.94;6247265;23;19995;-85
2022/12/02 07:19:28;;;;;;;;;;;;;;;5.56;100.00;100722.03;6249602;23;19986;-84
2022/12/02 07:21:54;;;;;;;;;;;;;;;5.72;100.00;100726.84;6266124;22;19952;-85
2022/12/02 07:24:20;;;;;;;;;;;;;;;5.77;100.00;100726.50;6269878;23;19915;-86
2022/12/02 07:26:46;;;;;;;;;;;;;;;5.81;100.00;100730.50;6248701;23;20262;-84
2022/12/02 07:29:19;;;;;;;;;;;;;;;5.94;100.00;100731.19;6249054;23;19912;-86
2022/12/02 07:31:45;;;;;;;;;;;;;;;5.89;100.00;100728.97;6251621;23;19918;-84
2022/12/02 07:34:12;;;;;;;;;;;;;;;6.11;100.00;100733.25;6222280;23;19911;-84
2022/12/02 07:36:37;;;;;;;;;;;;;;;5.87;100.00;100732.66;6249412;23;20383;-84
2022/12/02 07:39:03;;;;;;;;;;;;;;;5.74;100.00;100735.44;6248601;23;19911;-85
2022/12/02 07:41:30;;;;;;;;;;;;;;;5.71;100.00;100736.53;6222990;23;19912;-83
2022/12/02 07:43:55;;;;;;;;;;;;;;;5.99;100.00;100744.81;6249165;23;19912;-87
2022/12/02 07:46:21;;;;;;;;;;;;;;;6.19;100.00;100736.09;6251969;23;19911;-85
2022/12/02 07:48:46;;;;;;;;;;;;;;;6.31;100.00;100742.94;6273426;23;19916;-82
2022/12/02 07:51:12;;;;;;;;;;;;;;;6.13;100.00;100740.06;6267628;23;19912;-82
2022/12/02 07:53:38;;;;;;;;;;;;;;;5.97;100.00;100741.47;6264485;23;19911;-83
2022/12/02 07:56:06;;;;;;;;;;;;;;;5.80;100.00;100737.56;6251686;23;19957;-85
2022/12/02 07:58:32;;;;;;;;;;;;;;;5.77;100.00;100742.25;6250296;23;19915;-83
2022/12/02 08:00:58;;;;;;;;;;;;;;;5.88;100.00;100745.69;6222621;23;20231;-82
2022/12/02 08:03:27;;;;;;;;;;;;;;;6.13;100.00;100739.25;6222097;23;19908;-85
2022/12/02 08:05:52;;;;;;;;;;;;;;;6.04;100.00;100748.72;6249284;23;19942;-84
2022/12/02 08:08:18;;;;;;;;;;;;;;;5.69;100.00;100748.97;6248888;23;19912;-83
2022/12/02 08:10:43;;;;;;;;;;;;;;;5.54;100.00;100744.97;6248147;23;19908;-86
2022/12/02 08:13:09;;;;;;;;;;;;;;;5.48;100.00;100750.72;6248347;23;19950;-85
2022/12/02 08:15:34;;;;;;;;;;;;;;;5.50;100.00;100751.41;6248660;23;19912;-85
2022/12/02 08:17:59;;;;;;;;;;;;;;;5.48;100.00;100755.97;6255734;23;19911;-83
2022/12/02 08:20:27;;;;;;;;;;;;;;;5.64;100.00;100745.03;6266384;23;19952;-84
2022/12/02 08:22:52;;;;;;;;;;;;;;;5.92;100.00;100754.16;6273817;23;19903;-81
2022/12/02 08:25:18;;;;;;;;;;;;;;;5.91;100.00;100752.50;6266200;23;19969;-86
2022/12/02 08:27:43;;;;;;;;;;;;;;;5.85;100.00;100752.97;6248329;23;19912;-85
2022/12/02 08:30:09;;;;;;;;;;;;;;;6.01;100.00;100753.41;6220846;23;20250;-88
2022/12/02 08:32:34;;;;;;;;;;;;;;;5.94;100.00;100757.50;6248089;23;19907;-85
2022/12/02 08:35:00;;;;;;;;;;;;;;;5.91;100.00;100749.88;6248300;23;20220;-87
2022/12/02 08:37:25;;;;;;;;;;;;;;;5.86;100.00;100755.53;6247482;23;19919;-84
2022/12/02 08:39:51;;;;;;;;;;;;;;;5.89;100.00;100757.06;6248210;23;20281;-87
2022/12/02 08:42:17;;;;;;;;;;;;;;;6.07;100.00;100763.41;6248196;23;19918;-86
2022/12/02 08:44:43;;;;;;;;;;;;;;;6.05;100.00;100760.94;6249178;23;19934;-85
2022/12/02 08:47:08;;;;;;;;;;;;;;;6.13;100.00;100762.94;6259276;23;19911;-83
2022/12/02 08:49:33;;;;;;;;;;;;;;;6.24;100.00;100765.47;6247559;23;19904;-84
2022/12/02 08:51:59;;;;;;;;;;;;;;;6.17;100.00;100764.31;6254008;23;19994;-85
2022/12/02 08:54:24;;;;;;;;;;;;;;;6.08;100.00;100762.47;6221892;23;19974;-86
2022/12/02 08:56:50;;;;;;;;;;;;;;;6.16;100.00;100768.75;6249823;23;20324;-86
2022/12/02 08:59:15;;;;;;;;;;;;;;;6.45;100.00;100768.13;6250115;23;19912;-82
2022/12/02 09:01:41;;;;;;;;;;;;;;;6.48;100.00;100766.06;6248120;23;20286;-85
2022/12/02 09:04:06;;;;;;;;;;;;;;;6.20;100.00;100761.44;6248625;23;19919;-84
2022/12/02 09:06:31;;;;;;;;;;;;;;;6.22;100.00;100762.16;6248657;23;19915;-84
2022/12/02 09:08:57;;;;;;;;;;;;;;;6.39;100.00;100764.22;6249916;23;19918;-82
2022/12/02 09:11:22;;;;;;;;;;;;;;;6.31;100.00;100765.78;6256376;23;19974;-83
2022/12/02 09:13:47;;;;;;;;;;;;;;;6.22;100.00;100762.16;6255767;23;19935;-82
2022/12/02 09:16:13;;;;;;;;;;;;;;;6.40;100.00;100772.91;6256418;23;19915;-84
2022/12/02 09:18:38;;;;;;;;;;;;;;;6.34;100.00;100766.38;6228905;23;19911;-82
2022/12/02 09:21:04;;;;;;;;;;;;;;;6.54;100.00;100772.59;6252177;23;19919;-80
2022/12/02 09:23:29;;;;;;;;;;;;;;;6.40;100.00;100773.75;6221391;23;19907;-84
2022/12/02 09:26:15;;;;;;;;;;;;;;;6.30;100.00;100770.22;6249522;23;19959;-84
2022/12/02 09:28:40;;;;;;;;;;;;;;;6.24;100.00;100771.59;6224997;23;19911;-86
2022/12/02 09:31:05;;;;;;;;;;;;;;;6.13;100.00;100773.44;6231823;23;19959;-84
2022/12/02 09:33:31;;;;;;;;;;;;;;;6.33;100.00;100769.97;6265930;23;19912;-83
2022/12/02 09:35:56;;;;;;;;;;;;;;;6.42;100.00;100771.84;6242771;23;19926;-85
2022/12/02 09:38:22;;;;;;;;;;;;;;;6.35;100.00;100768.06;6268248;23;19926;-83
2022/12/02 09:40:47;;;;;;;;;;;;;;;6.26;100.00;100763.56;6270688;23;19915;-86
2022/12/02 09:43:15;;;;;;;;;;;;;;;6.18;100.00;100771.25;6265366;22;19973;-84
2022/12/02 09:45:41;;;;;;;;;;;;;;;6.29;100.00;100768.56;6256844;23;19907;-86
2022/12/02 09:48:07;;;;;;;;;;;;;;;6.42;100.00;100774.47;6253887;23;19912;-85
2022/12/02 09:50:36;;;;;;;;;;;;;;;6.60;100.00;100766.78;6251998;23;19935;-85
2022/12/02 09:53:04;;;;;;;;;;;;;;;6.71;100.00;100774.63;6252738;23;20284;-86
2022/12/02 09:55:29;;;;;;;;;;;;;;;6.68;100.00;100764.34;6248750;23;21950;-85
2022/12/02 09:57:55;;;;;;;;;;;;;;;6.88;100.00;100766.13;6249666;23;19985;-86
2022/12/02 10:00:22;;;;;;;;;;;;;;;6.98;100.00;100760.88;6248793;23;19912;-85
2022/12/02 10:02:48;;;;;;;;;;;;;;;6.95;100.00;100761.16;6223316;23;20338;-85
2022/12/02 10:05:14;;;;;;;;;;;;;;;6.79;100.00;100755.53;6221868;23;19915;-83
2022/12/02 10:07:42;;;;;;;;;;;;;;;7.06;100.00;100763.69;6227015;23;19916;-86
2022/12/02 10:10:12;;;;;;;;;;;;;;;6.84;100.00;100763.88;6253660;23;20405;-85
2022/12/02 10:12:38;;;;;;;;;;;;;;;6.58;100.00;100758.22;6253281;23;19918;-82
2022/12/02 10:15:04;;;;;;;;;;;;;;;6.63;100.00;100751.56;6273557;22;19903;-86
2022/12/02 10:17:29;;;;;;;;;;;;;;;6.67;100.00;100752.16;6234960;23;19916;-82
2022/12/02 10:19:56;;;;;;;;;;;;;;;6.75;100.00;100753.19;6247869;23;19912;-85
2022/12/02 10:22:21;;;;;;;;;;;;;;;6.83;100.00;100749.84;6247999;23;19911;-87
2022/12/02 10:24:50;;;;;;;;;;;;;;;6.82;100.00;100744.75;6221425;23;20375;-83
2022/12/02 10:27:26;;;;;;;;;;;;;;;6.75;100.00;100750.53;6248303;23;19964;-86
2022/12/02 10:29:51;;;;;;;;;;;;;;;6.73;100.00;100747.19;6247915;23;19990;-86
2022/12/02 10:32:21;;;;;;;;;;;;;;;7.02;100.00;100744.69;6247209;23;20293;-84
2022/12/02 10:35:01;;;;;;;;;;;;;;;6.94;100.00;100762.94;6219881;23;19924;-85
2022/12/02 10:37:27;;;;;;;;;;;;;;;6.86;100.00;100746.16;6246427;23;20279;-86
2022/12/02 10:40:12;;;;;;;;;;;;;;;6.96;100.00;100753.09;6220038;23;20242;-84
2022/12/02 10:42:37;;;;;;;;;;;;;;;6.91;100.00;100741.31;6246832;23;19919;-87
2022/12/02 10:45:16;;;;;;;;;;;;;;;7.18;100.00;100744.16;6246835;23;19908;-87
2022/12/02 10:47:42;;;;;;;;;;;;;;;7.18;100.00;100738.91;6194386;23;19911;-85
2022/12/02 10:50:17;;;;;;;;;;;;;;;7.21;100.00;100734.19;6246706;23;19915;-85
2022/12/02 10:52:54;;;;;;;;;;;;;;;7.10;100.00;100744.00;6246576;23;19919;-86
2022/12/02 10:55:21;;;;;;;;;;;;;;;7.37;100.00;100740.72;6220233;23;19998;-85
2022/12/02 10:57:47;;;;;;;;;;;;;;;7.32;100.00;100732.41;6246336;23;19986;-84
2022/12/02 11:00:12;;;;;;;;;;;;;;;7.39;100.00;100734.34;6246794;23;19935;-85
2022/12/02 11:02:59;;;;;;;;;;;;;;;7.04;100.00;100734.00;6247119;23;19907;-84
2022/12/02 11:05:26;;;;;;;;;;;;;;;7.21;100.00;100736.81;6247708;23;19911;-86
2022/12/02 11:07:54;;;;;;;;;;;;;;;7.26;100.00;100733.75;6248216;23;19995;-86
2022/12/02 11:10:21;;;;;;;;;;;;;;;7.34;100.00;100735.72;6220860;23;19957;-85
2022/12/02 11:12:46;;;;;;;;;;;;;;;7.07;100.00;100733.72;6247902;23;19951;-86
2022/12/02 11:15:32;;;;;;;;;;;;;;;6.96;100.00;100729.38;6202580;23;20334;-83
2022/12/02 11:17:57;;;;;;;;;;;;;;;7.08;100.00;100727.50;6261442;23;20234;-81
2022/12/02 11:20:29;;;;;;;;;;;;;;;7.20;100.00;100724.59;6258586;23;19919;-82
2022/12/02 11:22:57;;;;;;;;;;;;;;;7.15;100.00;100726.00;6248982;23;19938;-85
2022/12/02 11:25:41;;;;;;;;;;;;;;;7.20;100.00;100721.13;6248550;23;20396;-85
2022/12/02 11:28:27;;;;;;;;;;;;;;;7.43;100.00;100724.34;6220603;23;19911;-84
2022/12/02 11:31:10;;;;;;;;;;;;;;;7.40;100.00;100729.91;6173672;23;19941;-84
2022/12/02 11:34:00;;;;;;;;;;;;;;;7.42;100.00;100725.34;6250810;23;19916;-83
2022/12/02 11:36:28;;;;;;;;;;;;;;;7.79;100.00;100723.69;6222343;23;19982;-84
2022/12/02 11:38:54;;;;;;;;;;;;;;;7.67;100.00;100723.00;6253451;23;19915;-85
2022/12/02 11:41:24;;;;;;;;;;;;;;;7.61;100.00;100718.28;6272939;22;19919;-83
2022/12/02 11:43:52;;;;;;;;;;;;;;;7.52;100.00;100715.66;6269373;23;19961;-83
2022/12/02 11:46:37;;;;;;;;;;;;;;;7.66;100.00;100712.56;6232447;23;19994;-84
2022/12/02 11:49:02;;;;;;;;;;;;;;;7.82;100.00;100718.97;6249273;23;19957;-84
2022/12/02 11:51:27;;;;;;;;;;;;;;;7.69;100.00;100714.94;6253917;23;20282;-83
2022/12/02 11:53:54;;;;;;;;;;;;;;;7.67;100.00;100715.09;6195402;23;20353;-83
2022/12/02 11:56:20;;;;;;;;;;;;;;;7.73;100.00;100711.88;6249098;23;19912;-83
2022/12/02 11:58:45;;;;;;;;;;;;;;;7.85;100.00;100714.41;6247751;23;19911;-82
2022/12/02 12:01:11;;;;;;;;;;;;;;;7.62;100.00;100704.09;6248247;23;19912;-83
2022/12/02 12:03:39;;;;;;;;;;;;;;;7.63;100.00;100711.06;6222854;23;20039;-84
2022/12/02 12:06:07;;;;;;;;;;;;;;;7.43;100.00;100708.53;6227109;23;19961;-84
2022/12/02 12:08:34;;;;;;;;;;;;;;;7.40;100.00;100703.53;6228112;23;20381;-84
2022/12/02 12:11:17;;;;;;;;;;;;;;;7.30;100.00;100692.97;6258636;23;19918;-84
2022/12/02 12:14:03;;;;;;;;;;;;;;;7.42;100.00;100698.97;6264362;23;19912;-84
2022/12/02 12:16:32;;;;;;;;;;;;;;;7.43;100.00;100698.00;6267900;23;19927;-83
2022/12/02 12:19:00;;;;;;;;;;;;;;;7.36;100.00;100696.91;6268637;23;19915;-82
2022/12/02 12:21:32;;;;;;;;;;;;;;;7.53;100.00;100698.81;6267455;23;19908;-83
2022/12/02 12:24:18;;;;;;;;;;;;;;;7.54;100.00;100696.06;6258712;23;19912;-82
2022/12/02 12:27:21;;;;;;;;;;;;;;;7.69;100.00;100696.47;6258152;22;19911;-84
2022/12/02 12:29:46;;;;;;;;;;;;;;;7.43;100.00;100690.91;6233089;23;20009;-85
2022/12/02 12:32:13;;;;;;;;;;;;;;;7.36;100.00;100697.72;6226701;23;20335;-86
2022/12/02 12:34:38;;;;;;;;;;;;;;;7.43;100.00;100692.72;6226877;23;19978;-84
2022/12/02 12:37:04;;;;;;;;;;;;;;;7.52;100.00;100684.84;6257903;23;20235;-87
2022/12/02 12:39:29;;;;;;;;;;;;;;;7.53;100.00;100683.84;6250031;23;19907;-85
2022/12/02 12:41:55;;;;;;;;;;;;;;;7.50;100.00;100680.66;6249609;23;19926;-84
2022/12/02 12:44:20;;;;;;;;;;;;;;;7.71;100.00;100687.47;6248090;23;19911;-81
2022/12/02 12:46:47;;;;;;;;;;;;;;;7.48;100.00;100678.16;6248538;23;19912;-84
2022/12/02 12:49:13;;;;;;;;;;;;;;;7.69;100.00;100678.00;6249602;23;19945;-84
2022/12/02 12:51:38;;;;;;;;;;;;;;;7.67;100.00;100677.31;6248849;23;19911;-85